Time;durP1;ratioP1;P1;durP2;ratioP2;P2;SDS_P1;SDS_P2;PMS_P1;PMS_P2;Temp;Humidity;BMP_temperature;BMP_pressure;BME280_temperature;BME280_humidity;BME280_pressure;Samples;Min_cycle;Max_cycle;Signal;HPM_P1;HPM_P2
2022/04/08 00:01:19;;;;;;;0.08;0.08;;;;;;;;;;4179293;28;20095;-36
2022/04/08 00:03:20;;;;;;;0.15;0.10;;;;;;;;;;4178923;28;20064;-35
2022/04/08 00:05:22;;;;;;;0.15;0.00;;;;;;;;;;4177867;28;20060;-35
2022/04/08 00:07:23;;;;;;;0.22;0.10;;;;;;;;;;4179050;28;20052;-35
2022/04/08 00:09:25;;;;;;;0.05;0.00;;;;;;;;;;4178521;28;20057;-35
2022/04/08 00:11:26;;;;;;;0.00;0.00;;;;;;;;;;4177839;28;20060;-35
2022/04/08 00:13:27;;;;;;;0.00;0.00;;;;;;;;;;4178995;28;20055;-35
2022/04/08 00:15:29;;;;;;;0.20;0.10;;;;;;;;;;4178987;28;20127;-35
2022/04/08 00:17:30;;;;;;;0.45;0.13;;;;;;;;;;4179225;28;20500;-35
2022/04/08 00:19:31;;;;;;;0.05;0.00;;;;;;;;;;4177688;28;20052;-35
2022/04/08 00:21:33;;;;;;;0.10;0.10;;;;;;;;;;4161150;28;20080;-35
2022/04/08 00:23:34;;;;;;;0.10;0.03;;;;;;;;;;4178224;28;20503;-36
2022/04/08 00:25:35;;;;;;;0.00;0.00;;;;;;;;;;4177750;28;20053;-35
2022/04/08 00:27:38;;;;;;;0.28;0.10;;;;;;;;;;4177561;28;20578;-35
2022/04/08 00:29:40;;;;;;;0.20;0.10;;;;;;;;;;4177555;28;20049;-35
2022/04/08 00:31:41;;;;;;;0.20;0.10;;;;;;;;;;4179017;28;20061;-35
2022/04/08 00:33:42;;;;;;;0.10;0.00;;;;;;;;;;4181175;28;20186;-36
2022/04/08 00:35:43;;;;;;;0.55;0.10;;;;;;;;;;4182360;28;20061;-35
2022/04/08 00:37:44;;;;;;;0.03;0.03;;;;;;;;;;4182521;28;20106;-35
2022/04/08 00:39:46;;;;;;;0.25;0.10;;;;;;;;;;4181706;28;20053;-35
2022/04/08 00:41:47;;;;;;;0.20;0.20;;;;;;;;;;4182082;28;20106;-35
2022/04/08 00:43:48;;;;;;;0.00;0.00;;;;;;;;;;4182103;28;20057;-36
2022/04/08 00:45:50;;;;;;;0.10;0.10;;;;;;;;;;4182360;28;20053;-35
2022/04/08 00:47:51;;;;;;;0.08;0.08;;;;;;;;;;4182330;28;20057;-35
2022/04/08 00:49:53;;;;;;;0.10;0.08;;;;;;;;;;4182003;28;20110;-35
2022/04/08 00:51:54;;;;;;;0.20;0.20;;;;;;;;;;4182269;28;20048;-35
2022/04/08 00:53:56;;;;;;;0.00;0.00;;;;;;;;;;4180219;28;20071;-35
2022/04/08 00:55:57;;;;;;;0.10;0.05;;;;;;;;;;4180733;28;20056;-35
2022/04/08 00:58:03;;;;;;;0.13;0.10;;;;;;;;;;4181999;28;20099;-35
2022/04/08 01:00:07;;;;;;;0.00;0.00;;;;;;;;;;4181612;28;20053;-35
2022/04/08 01:02:09;;;;;;;0.20;0.10;;;;;;;;;;4181710;28;20045;-35
2022/04/08 01:04:10;;;;;;;0.00;0.00;;;;;;;;;;4180618;28;20052;-35
2022/04/08 01:06:11;;;;;;;0.05;0.05;;;;;;;;;;4181910;28;20492;-35
2022/04/08 01:08:14;;;;;;;0.32;0.10;;;;;;;;;;4181229;28;20492;-35
2022/04/08 01:10:15;;;;;;;0.17;0.17;;;;;;;;;;4181907;28;20187;-35
2022/04/08 01:12:16;;;;;;;0.20;0.10;;;;;;;;;;4180452;28;20609;-35
2022/04/08 01:14:17;;;;;;;0.03;0.03;;;;;;;;;;4181534;28;20065;-35
2022/04/08 01:16:22;;;;;;;0.20;0.17;;;;;;;;;;4181942;28;20103;-35
2022/04/08 01:18:24;;;;;;;0.00;0.00;;;;;;;;;;4181674;28;20399;-35
2022/04/08 01:20:26;;;;;;;0.17;0.10;;;;;;;;;;4180367;28;20099;-35
2022/04/08 01:22:28;;;;;;;0.10;0.00;;;;;;;;;;4181561;28;20098;-35
2022/04/08 01:24:30;;;;;;;0.32;0.00;;;;;;;;;;4180980;28;20176;-35
2022/04/08 01:26:31;;;;;;;0.17;0.00;;;;;;;;;;4180438;28;20056;-35
2022/04/08 01:28:34;;;;;;;0.00;0.00;;;;;;;;;;4181341;28;20052;-35
2022/04/08 01:30:35;;;;;;;0.40;0.20;;;;;;;;;;4181707;28;20057;-35
2022/04/08 01:32:36;;;;;;;0.40;0.22;;;;;;;;;;4181630;28;20049;-35
2022/04/08 01:34:38;;;;;;;0.52;0.00;;;;;;;;;;4181548;28;20068;-35
2022/04/08 01:36:39;;;;;;;0.10;0.10;;;;;;;;;;4181271;28;20554;-35
2022/04/08 01:38:40;;;;;;;0.10;0.10;;;;;;;;;;4179579;28;20199;-35
2022/04/08 01:40:42;;;;;;;0.20;0.10;;;;;;;;;;4181281;28;20048;-35
2022/04/08 01:42:43;;;;;;;0.10;0.00;;;;;;;;;;4181140;28;20052;-35
2022/04/08 01:44:44;;;;;;;0.00;0.00;;;;;;;;;;4180448;28;20049;-35
2022/04/08 01:46:45;;;;;;;0.47;0.10;;;;;;;;;;4163378;28;20061;-35
2022/04/08 01:48:47;;;;;;;0.10;0.00;;;;;;;;;;4181040;28;20091;-35
2022/04/08 01:50:48;;;;;;;0.00;0.00;;;;;;;;;;4181134;28;20492;-35
2022/04/08 01:52:49;;;;;;;0.45;0.10;;;;;;;;;;4181059;28;20098;-35
2022/04/08 01:54:50;;;;;;;0.05;0.00;;;;;;;;;;4180564;28;20067;-35
2022/04/08 01:56:51;;;;;;;0.60;0.10;;;;;;;;;;4181325;28;20056;-35
2022/04/08 01:58:52;;;;;;;0.28;0.10;;;;;;;;;;4180652;28;20065;-35
2022/04/08 02:00:53;;;;;;;0.15;0.10;;;;;;;;;;4181250;28;20056;-35
2022/04/08 02:02:55;;;;;;;0.10;0.10;;;;;;;;;;4180937;28;20048;-35
2022/04/08 02:04:56;;;;;;;0.98;0.10;;;;;;;;;;4180842;28;20057;-35
2022/04/08 02:06:58;;;;;;;0.40;0.35;;;;;;;;;;4179484;28;20129;-35
2022/04/08 02:08:59;;;;;;;0.50;0.20;;;;;;;;;;4180550;28;20099;-35
2022/04/08 02:11:01;;;;;;;0.00;0.00;;;;;;;;;;4180811;28;20150;-35
2022/04/08 02:13:02;;;;;;;0.20;0.00;;;;;;;;;;4180654;28;20075;-35
2022/04/08 02:15:03;;;;;;;0.00;0.00;;;;;;;;;;4180889;28;20110;-35
2022/04/08 02:17:05;;;;;;;0.00;0.00;;;;;;;;;;4180742;28;20391;-35
2022/04/08 02:19:06;;;;;;;0.10;0.10;;;;;;;;;;4180557;28;20049;-35
2022/04/08 02:21:09;;;;;;;0.40;0.00;;;;;;;;;;4180696;28;20048;-35
2022/04/08 02:23:11;;;;;;;0.10;0.10;;;;;;;;;;4180046;28;20493;-35
2022/04/08 02:25:12;;;;;;;0.15;0.10;;;;;;;;;;4180428;28;20049;-35
2022/04/08 02:27:13;;;;;;;0.00;0.00;;;;;;;;;;4179445;28;20516;-35
2022/04/08 02:29:14;;;;;;;0.10;0.10;;;;;;;;;;4180446;28;20107;-35
2022/04/08 02:31:16;;;;;;;0.00;0.00;;;;;;;;;;4180469;28;20098;-35
2022/04/08 02:33:17;;;;;;;0.17;0.08;;;;;;;;;;4180415;28;20057;-35
2022/04/08 02:35:19;;;;;;;0.10;0.00;;;;;;;;;;4180653;28;20056;-35
2022/04/08 02:37:20;;;;;;;0.00;0.00;;;;;;;;;;4180535;28;20068;-35
2022/04/08 02:39:21;;;;;;;0.00;0.00;;;;;;;;;;4179870;28;20057;-35
2022/04/08 02:41:22;;;;;;;0.13;0.00;;;;;;;;;;4180397;28;20079;-35
2022/04/08 02:43:23;;;;;;;0.00;0.00;;;;;;;;;;4178803;28;20522;-35
2022/04/08 02:45:25;;;;;;;0.08;0.03;;;;;;;;;;4180347;28;20049;-35
2022/04/08 02:47:26;;;;;;;0.00;0.00;;;;;;;;;;4180311;28;20053;-35
2022/04/08 02:49:27;;;;;;;0.35;0.03;;;;;;;;;;4178972;28;20056;-35
2022/04/08 02:51:28;;;;;;;0.10;0.10;;;;;;;;;;4178916;28;20049;-35
2022/04/08 02:53:29;;;;;;;0.15;0.08;;;;;;;;;;4179892;28;20083;-35
2022/04/08 02:55:31;;;;;;;0.00;0.00;;;;;;;;;;4180173;28;20057;-35
2022/04/08 02:57:32;;;;;;;0.13;0.13;;;;;;;;;;4180052;28;20390;-35
2022/04/08 02:59:33;;;;;;;0.00;0.00;;;;;;;;;;4178461;28;20056;-35
2022/04/08 03:01:34;;;;;;;0.10;0.10;;;;;;;;;;4180151;28;20064;-35
2022/04/08 03:03:35;;;;;;;0.20;0.10;;;;;;;;;;4180088;28;20052;-35
2022/04/08 03:05:37;;;;;;;0.10;0.10;;;;;;;;;;4180229;28;20057;-35
2022/04/08 03:07:38;;;;;;;0.00;0.00;;;;;;;;;;4179908;28;20059;-35
2022/04/08 03:09:39;;;;;;;0.00;0.00;;;;;;;;;;4179290;28;20075;-36
2022/04/08 03:11:40;;;;;;;0.00;0.00;;;;;;;;;;4180075;28;20053;-35
2022/04/08 03:13:41;;;;;;;0.00;0.00;;;;;;;;;;4179845;28;20041;-36
2022/04/08 03:15:43;;;;;;;0.20;0.10;;;;;;;;;;4179858;28;20063;-35
2022/04/08 03:17:45;;;;;;;0.13;0.00;;;;;;;;;;4179919;28;20099;-35
2022/04/08 03:19:47;;;;;;;0.20;0.10;;;;;;;;;;4178509;28;20447;-35
2022/04/08 03:21:48;;;;;;;0.10;0.00;;;;;;;;;;4179975;28;20110;-35
2022/04/08 03:23:49;;;;;;;0.10;0.10;;;;;;;;;;4179084;28;20090;-35
2022/04/08 03:25:50;;;;;;;0.03;0.03;;;;;;;;;;4179639;28;20057;-35
2022/04/08 03:27:52;;;;;;;0.13;0.10;;;;;;;;;;4179896;28;20056;-35
2022/04/08 03:29:53;;;;;;;0.03;0.03;;;;;;;;;;4179871;28;20095;-35
2022/04/08 03:31:54;;;;;;;0.00;0.00;;;;;;;;;;4179598;28;20382;-35
2022/04/08 03:33:55;;;;;;;0.03;0.00;;;;;;;;;;4179651;28;20053;-35
2022/04/08 03:35:56;;;;;;;0.00;0.00;;;;;;;;;;4179518;28;20484;-35
2022/04/08 03:37:57;;;;;;;0.05;0.05;;;;;;;;;;4178190;28;20111;-35
2022/04/08 03:39:59;;;;;;;0.00;0.00;;;;;;;;;;4178920;28;20064;-35
2022/04/08 03:42:00;;;;;;;0.00;0.00;;;;;;;;;;4179463;28;20475;-35
2022/04/08 03:44:01;;;;;;;0.00;0.00;;;;;;;;;;4179245;28;20137;-35
2022/04/08 03:46:02;;;;;;;0.00;0.00;;;;;;;;;;4179499;28;20057;-35
2022/04/08 03:48:04;;;;;;;0.08;0.08;;;;;;;;;;4179329;28;20107;-35
2022/04/08 03:50:05;;;;;;;0.00;0.00;;;;;;;;;;4179357;28;20094;-35
2022/04/08 03:52:10;;;;;;;0.00;0.00;;;;;;;;;;4179356;28;20057;-35
2022/04/08 03:54:11;;;;;;;0.00;0.00;;;;;;;;;;4178658;28;20110;-35
2022/04/08 03:56:12;;;;;;;0.00;0.00;;;;;;;;;;4179245;28;20057;-35
2022/04/08 03:58:14;;;;;;;0.08;0.00;;;;;;;;;;4179542;28;20057;-35
2022/04/08 04:00:15;;;;;;;0.20;0.10;;;;;;;;;;4178988;28;20052;-35
2022/04/08 04:02:17;;;;;;;0.15;0.00;;;;;;;;;;4179109;28;20149;-36
2022/04/08 04:04:19;;;;;;;0.08;0.00;;;;;;;;;;4179283;28;20107;-35
2022/04/08 04:06:20;;;;;;;0.10;0.05;;;;;;;;;;4177847;28;20102;-35
2022/04/08 04:08:21;;;;;;;0.30;0.10;;;;;;;;;;4178373;28;20106;-35
2022/04/08 04:10:22;;;;;;;0.10;0.05;;;;;;;;;;4177987;28;20100;-36
2022/04/08 04:12:23;;;;;;;0.00;0.00;;;;;;;;;;4179174;28;20094;-35
2022/04/08 04:14:24;;;;;;;0.10;0.10;;;;;;;;;;4178871;28;20393;-35
2022/04/08 04:16:26;;;;;;;0.10;0.10;;;;;;;;;;4177847;28;20056;-35
2022/04/08 04:18:27;;;;;;;0.00;0.00;;;;;;;;;;4178889;28;20123;-35
2022/04/08 04:20:28;;;;;;;0.50;0.00;;;;;;;;;;4179066;28;20049;-35
2022/04/08 04:22:30;;;;;;;0.00;0.00;;;;;;;;;;4178733;28;20091;-35
2022/04/08 04:24:31;;;;;;;0.05;0.05;;;;;;;;;;4178603;28;20057;-35
2022/04/08 04:26:32;;;;;;;0.00;0.00;;;;;;;;;;4178988;28;20115;-35
2022/04/08 04:28:34;;;;;;;0.32;0.10;;;;;;;;;;4175040;28;20440;-35
2022/04/08 04:30:35;;;;;;;0.25;0.10;;;;;;;;;;4177338;28;20049;-35
2022/04/08 04:32:36;;;;;;;0.10;0.10;;;;;;;;;;4178528;28;20056;-35
2022/04/08 04:34:38;;;;;;;0.10;0.10;;;;;;;;;;4176720;28;20048;-35
2022/04/08 04:36:39;;;;;;;0.00;0.00;;;;;;;;;;4178874;28;20103;-36
2022/04/08 04:38:40;;;;;;;0.30;0.10;;;;;;;;;;4178237;28;20057;-35
2022/04/08 04:40:41;;;;;;;0.30;0.17;;;;;;;;;;4178889;28;20052;-35
2022/04/08 04:42:43;;;;;;;0.20;0.10;;;;;;;;;;4178841;28;20095;-35
2022/04/08 04:44:43;;;;;;;0.20;0.10;;;;;;;;;;4178668;28;20083;-35
2022/04/08 04:46:45;;;;;;;0.10;0.03;;;;;;;;;;4178896;28;20049;-35
2022/04/08 04:48:47;;;;;;;0.00;0.00;;;;;;;;;;4178747;28;20057;-35
2022/04/08 04:50:49;;;;;;;0.08;0.08;;;;;;;;;;4178720;28;20053;-35
2022/04/08 04:52:51;;;;;;;0.00;0.00;;;;;;;;;;4178710;28;20122;-35
2022/04/08 04:54:52;;;;;;;0.10;0.00;;;;;;;;;;4178505;28;20110;-35
2022/04/08 04:56:53;;;;;;;0.17;0.10;;;;;;;;;;4178646;28;20450;-35
2022/04/08 04:58:54;;;;;;;0.00;0.00;;;;;;;;;;4178617;28;20118;-36
2022/04/08 05:00:55;;;;;;;0.00;0.00;;;;;;;;;;4175585;28;20088;-35
2022/04/08 05:02:56;;;;;;;0.00;0.00;;;;;;;;;;4176826;28;20057;-35
2022/04/08 05:04:57;;;;;;;0.00;0.00;;;;;;;;;;4176559;28;20492;-35
2022/04/08 05:06:58;;;;;;;0.20;0.10;;;;;;;;;;4176592;28;20415;-35
2022/04/08 05:08:59;;;;;;;0.30;0.10;;;;;;;;;;4176003;28;20068;-35
2022/04/08 05:11:01;;;;;;;0.00;0.00;;;;;;;;;;4176890;28;20064;-35
2022/04/08 05:13:02;;;;;;;0.10;0.10;;;;;;;;;;4176043;28;20053;-35
2022/04/08 05:15:06;;;;;;;0.00;0.00;;;;;;;;;;4176708;28;20130;-35
2022/04/08 05:17:07;;;;;;;0.10;0.10;;;;;;;;;;4177038;28;20053;-35
2022/04/08 05:19:08;;;;;;;0.10;0.10;;;;;;;;;;4176644;28;20102;-35
2022/04/08 05:21:09;;;;;;;0.20;0.10;;;;;;;;;;4179214;28;20549;-35
2022/04/08 05:23:10;;;;;;;0.20;0.00;;;;;;;;;;4179146;28;20057;-35
2022/04/08 05:25:12;;;;;;;0.10;0.10;;;;;;;;;;4179565;28;20443;-35
2022/04/08 05:27:13;;;;;;;0.00;0.00;;;;;;;;;;4179841;28;20057;-35
2022/04/08 05:29:14;;;;;;;0.20;0.05;;;;;;;;;;4179465;28;20053;-35
2022/04/08 05:31:15;;;;;;;0.10;0.10;;;;;;;;;;4178308;28;20053;-35
2022/04/08 05:33:16;;;;;;;0.10;0.10;;;;;;;;;;4179902;28;20114;-35
2022/04/08 05:35:18;;;;;;;0.10;0.10;;;;;;;;;;4179561;28;20645;-35
2022/04/08 05:37:19;;;;;;;0.32;0.15;;;;;;;;;;4179435;28;20056;-35
2022/04/08 05:39:20;;;;;;;0.17;0.10;;;;;;;;;;4179278;28;20056;-35
2022/04/08 05:41:21;;;;;;;0.10;0.10;;;;;;;;;;4178256;28;20135;-35
2022/04/08 05:43:22;;;;;;;0.70;0.28;;;;;;;;;;4179176;28;20049;-35
2022/04/08 05:45:24;;;;;;;0.75;0.20;;;;;;;;;;4179811;28;20064;-35
2022/04/08 05:47:28;;;;;;;1.08;0.17;;;;;;;;;;4179186;28;20053;-36
2022/04/08 05:49:29;;;;;;;0.68;0.20;;;;;;;;;;4178591;28;20323;-35
2022/04/08 05:51:30;;;;;;;0.25;0.10;;;;;;;;;;4170870;28;20053;-35
2022/04/08 05:53:31;;;;;;;0.10;0.10;;;;;;;;;;4182288;28;20117;-35
2022/04/08 05:55:33;;;;;;;0.10;0.10;;;;;;;;;;4172280;28;20052;-36
2022/04/08 05:57:35;;;;;;;0.32;0.10;;;;;;;;;;4179614;28;20056;-35
2022/04/08 05:59:39;;;;;;;0.15;0.15;;;;;;;;;;4179913;28;20065;-35
2022/04/08 06:01:40;;;;;;;0.28;0.17;;;;;;;;;;4183200;28;20110;-36
2022/04/08 06:03:41;;;;;;;0.25;0.10;;;;;;;;;;4185290;28;20055;-35
2022/04/08 06:05:43;;;;;;;0.32;0.20;;;;;;;;;;4187338;28;20396;-35
2022/04/08 06:07:48;;;;;;;0.47;0.10;;;;;;;;;;4184470;28;20107;-35
2022/04/08 06:09:49;;;;;;;0.22;0.10;;;;;;;;;;4186402;28;20098;-36
2022/04/08 06:11:50;;;;;;;0.95;0.10;;;;;;;;;;4185102;28;20048;-36
2022/04/08 06:13:52;;;;;;;0.13;0.10;;;;;;;;;;4179850;28;20389;-36
2022/04/08 06:15:53;;;;;;;0.20;0.10;;;;;;;;;;4183631;28;20099;-36
2022/04/08 06:17:55;;;;;;;0.40;0.10;;;;;;;;;;4181462;28;20106;-35
2022/04/08 06:19:57;;;;;;;0.20;0.10;;;;;;;;;;4182032;28;20488;-35
2022/04/08 06:21:59;;;;;;;0.10;0.10;;;;;;;;;;4169731;28;20057;-36
2022/04/08 06:24:00;;;;;;;1.38;0.20;;;;;;;;;;4165157;28;20126;-37
2022/04/08 06:26:01;;;;;;;0.65;0.20;;;;;;;;;;4171001;28;20542;-35
2022/04/08 06:28:04;;;;;;;0.20;0.10;;;;;;;;;;4169307;28;20114;-35
2022/04/08 06:30:10;;;;;;;0.35;0.10;;;;;;;;;;4167884;28;20111;-35
2022/04/08 06:32:11;;;;;;;0.40;0.10;;;;;;;;;;4170157;28;20454;-35
2022/04/08 06:34:12;;;;;;;0.10;0.08;;;;;;;;;;4182437;28;20113;-37
2022/04/08 06:36:14;;;;;;;0.38;0.10;;;;;;;;;;4179236;28;20049;-36
2022/04/08 06:38:15;;;;;;;0.10;0.10;;;;;;;;;;4180066;28;20053;-36
2022/04/08 06:40:16;;;;;;;0.05;0.05;;;;;;;;;;4177722;28;20059;-36
2022/04/08 06:42:17;;;;;;;0.20;0.10;;;;;;;;;;4179080;28;20052;-36
2022/04/08 06:44:19;;;;;;;1.30;0.10;;;;;;;;;;4176737;28;20492;-36
2022/04/08 06:46:21;;;;;;;0.40;0.10;;;;;;;;;;4182701;28;20130;-36
2022/04/08 06:48:22;;;;;;;0.28;0.10;;;;;;;;;;4180033;28;20099;-36
2022/04/08 06:50:24;;;;;;;0.10;0.10;;;;;;;;;;4179539;28;20057;-36
2022/04/08 06:52:25;;;;;;;0.00;0.00;;;;;;;;;;4171606;28;20052;-36
2022/04/08 06:54:26;;;;;;;1.77;0.00;;;;;;;;;;4172703;28;20422;-36
2022/04/08 06:56:28;;;;;;;0.08;0.08;;;;;;;;;;4174441;28;20124;-36
2022/04/08 06:58:30;;;;;;;0.17;0.10;;;;;;;;;;4172009;28;20067;-36
2022/04/08 07:00:32;;;;;;;1.38;0.20;;;;;;;;;;4164634;28;20428;-36
2022/04/08 07:02:33;;;;;;;0.40;0.10;;;;;;;;;;4166372;28;20053;-36
2022/04/08 07:04:35;;;;;;;0.32;0.10;;;;;;;;;;4171720;28;20063;-36
2022/04/08 07:06:37;;;;;;;2.17;0.10;;;;;;;;;;4174531;28;20060;-36
2022/04/08 07:08:38;;;;;;;0.40;0.20;;;;;;;;;;4178314;28;20060;-36
2022/04/08 07:10:40;;;;;;;1.55;0.10;;;;;;;;;;4179246;28;20075;-36
2022/04/08 07:12:41;;;;;;;0.40;0.10;;;;;;;;;;4177198;28;20150;-36
2022/04/08 07:14:42;;;;;;;0.50;0.10;;;;;;;;;;4167992;28;20052;-36
2022/04/08 07:16:43;;;;;;;0.70;0.10;;;;;;;;;;4176982;28;20053;-36
2022/04/08 07:18:45;;;;;;;0.63;0.20;;;;;;;;;;4172909;28;20117;-36
2022/04/08 07:20:46;;;;;;;0.25;0.00;;;;;;;;;;4172969;28;20052;-36
2022/04/08 07:22:48;;;;;;;0.85;0.10;;;;;;;;;;4179498;28;20094;-36
2022/04/08 07:24:50;;;;;;;0.20;0.20;;;;;;;;;;4176158;28;20052;-36
2022/04/08 07:26:52;;;;;;;0.10;0.10;;;;;;;;;;4176385;28;20059;-36
2022/04/08 07:28:54;;;;;;;0.65;0.20;;;;;;;;;;4177139;28;20527;-36
2022/04/08 07:30:55;;;;;;;0.45;0.20;;;;;;;;;;4172699;28;20105;-36
2022/04/08 07:32:56;;;;;;;2.33;0.45;;;;;;;;;;4172365;28;20050;-36
2022/04/08 07:34:58;;;;;;;0.68;0.20;;;;;;;;;;4181349;28;20056;-36
2022/04/08 07:37:00;;;;;;;2.38;0.10;;;;;;;;;;4177175;28;20056;-36
2022/04/08 07:39:01;;;;;;;0.10;0.10;;;;;;;;;;4175172;28;20781;-36
2022/04/08 07:41:02;;;;;;;0.75;0.20;;;;;;;;;;4175823;28;20105;-36
2022/04/08 07:43:03;;;;;;;1.30;0.28;;;;;;;;;;4180774;28;20098;-36
2022/04/08 07:45:06;;;;;;;1.52;0.15;;;;;;;;;;4173061;28;20147;-36
2022/04/08 07:47:08;;;;;;;0.20;0.13;;;;;;;;;;4178350;28;20060;-37
2022/04/08 07:49:09;;;;;;;0.30;0.10;;;;;;;;;;4177237;28;20110;-36
2022/04/08 07:51:10;;;;;;;0.10;0.10;;;;;;;;;;4180752;28;20461;-37
2022/04/08 07:53:11;;;;;;;0.10;0.08;;;;;;;;;;4175788;28;20052;-36
2022/04/08 07:55:13;;;;;;;0.00;0.00;;;;;;;;;;4179665;28;20098;-36
2022/04/08 07:57:14;;;;;;;1.88;0.13;;;;;;;;;;4177259;28;20099;-36
2022/04/08 07:59:15;;;;;;;0.52;0.20;;;;;;;;;;4181328;28;20629;-36
2022/04/08 08:01:16;;;;;;;1.42;0.17;;;;;;;;;;4180616;28;20515;-36
2022/04/08 08:03:19;;;;;;;0.10;0.10;;;;;;;;;;4183371;28;20054;-36
2022/04/08 08:05:21;;;;;;;0.20;0.10;;;;;;;;;;4178225;28;20064;-36
2022/04/08 08:07:22;;;;;;;1.65;0.10;;;;;;;;;;4163169;28;20065;-36
2022/04/08 08:09:23;;;;;;;0.52;0.13;;;;;;;;;;4179291;28;20056;-36
2022/04/08 08:11:25;;;;;;;1.65;0.10;;;;;;;;;;4182055;28;20063;-36
2022/04/08 08:13:26;;;;;;;0.55;0.10;;;;;;;;;;4175696;28;20053;-36
2022/04/08 08:15:28;;;;;;;0.40;0.10;;;;;;;;;;4166141;28;20051;-36
2022/04/08 08:17:30;;;;;;;0.22;0.10;;;;;;;;;;4173687;28;20056;-36
2022/04/08 08:19:31;;;;;;;1.98;0.17;;;;;;;;;;4173875;28;20044;-34
2022/04/08 08:21:32;;;;;;;0.47;0.10;;;;;;;;;;4172420;28;20118;-34
2022/04/08 08:23:34;;;;;;;0.00;0.00;;;;;;;;;;4173518;28;20045;-35
2022/04/08 08:25:35;;;;;;;0.35;0.10;;;;;;;;;;4176112;28;20053;-35
2022/04/08 08:27:41;;;;;;;0.20;0.20;;;;;;;;;;4172108;28;20053;-35
2022/04/08 08:29:42;;;;;;;1.42;0.13;;;;;;;;;;4174777;28;20355;-35
2022/04/08 08:31:43;;;;;;;0.30;0.00;;;;;;;;;;4167143;28;20562;-35
2022/04/08 08:33:45;;;;;;;0.75;0.10;;;;;;;;;;4172628;28;20439;-35
2022/04/08 08:35:46;;;;;;;1.98;0.20;;;;;;;;;;4175876;28;20056;-35
2022/04/08 08:37:48;;;;;;;0.10;0.00;;;;;;;;;;4177078;28;20064;-35
2022/04/08 08:39:49;;;;;;;0.10;0.10;;;;;;;;;;4165954;28;20185;-35
2022/04/08 08:41:51;;;;;;;0.57;0.10;;;;;;;;;;4168749;28;20194;-35
2022/04/08 08:43:54;;;;;;;0.20;0.15;;;;;;;;;;4164192;28;20290;-35
2022/04/08 08:45:56;;;;;;;1.10;0.00;;;;;;;;;;4173925;28;20057;-36
2022/04/08 08:48:01;;;;;;;0.15;0.10;;;;;;;;;;4163951;28;20501;-35
2022/04/08 08:50:05;;;;;;;2.85;0.30;;;;;;;;;;4172140;28;20079;-36
2022/04/08 08:52:09;;;;;;;2.63;0.20;;;;;;;;;;4171625;28;20048;-36
2022/04/08 08:54:10;;;;;;;0.57;0.10;;;;;;;;;;4171872;28;20126;-35
2022/04/08 08:56:11;;;;;;;0.10;0.08;;;;;;;;;;4181002;28;20045;-36
2022/04/08 08:58:12;;;;;;;0.10;0.08;;;;;;;;;;4179917;28;20122;-35
2022/04/08 09:00:16;;;;;;;0.03;0.03;;;;;;;;;;4162990;28;20056;-36
2022/04/08 09:02:18;;;;;;;0.32;0.10;;;;;;;;;;4173982;28;20104;-35
2022/04/08 09:04:20;;;;;;;0.80;0.20;;;;;;;;;;4181035;28;20569;-35
2022/04/08 09:06:21;;;;;;;3.28;0.30;;;;;;;;;;4182428;28;20150;-36
2022/04/08 09:08:31;;;;;;;2.00;0.32;;;;;;;;;;4176540;28;20056;-35
2022/04/08 09:10:35;;;;;;;2.10;0.30;;;;;;;;;;4179480;28;20071;-35
2022/04/08 09:12:36;;;;;;;1.38;0.30;;;;;;;;;;4180194;28;20057;-35
2022/04/08 09:14:37;;;;;;;2.88;0.20;;;;;;;;;;4178512;28;20098;-35
2022/04/08 09:16:39;;;;;;;1.88;0.40;;;;;;;;;;4176153;28;20068;-35
2022/04/08 09:18:44;;;;;;;0.68;0.20;;;;;;;;;;4178600;28;20061;-35
2022/04/08 09:20:50;;;;;;;2.15;0.30;;;;;;;;;;4185858;28;20450;-35
2022/04/08 09:22:55;;;;;;;1.73;0.45;;;;;;;;;;4184642;28;20087;-35
2022/04/08 09:25:10;;;;;;;1.38;0.40;;;;;;;;;;4180222;28;20061;-35
2022/04/08 09:27:12;;;;;;;0.93;0.20;;;;;;;;;;4184439;28;20053;-35
2022/04/08 09:29:13;;;;;;;5.38;0.70;;;;;;;;;;4181520;28;20412;-36
2022/04/08 09:31:19;;;;;;;3.53;0.93;;;;;;;;;;4180425;28;20090;-35
2022/04/08 09:33:23;;;;;;;0.60;0.30;;;;;;;;;;4181063;28;20060;-36
2022/04/08 09:35:24;;;;;;;1.05;0.28;;;;;;;;;;4185534;28;20455;-35
2022/04/08 09:37:26;;;;;;;2.00;0.50;;;;;;;;;;4184574;28;20053;-35
2022/04/08 09:39:27;;;;;;;3.97;0.47;;;;;;;;;;4178093;28;20072;-35
2022/04/08 09:41:48;;;;;;;0.45;0.40;;;;;;;;;;4175715;28;20057;-35
2022/04/08 09:43:49;;;;;;;7.80;0.40;;;;;;;;;;4175720;28;20056;-35
2022/04/08 09:45:51;;;;;;;3.10;0.65;;;;;;;;;;4178957;28;20048;-35
2022/04/08 09:47:52;;;;;;;1.85;0.30;;;;;;;;;;4179843;28;20102;-35
2022/04/08 09:49:53;;;;;;;3.55;0.77;;;;;;;;;;4180934;28;20073;-35
2022/04/08 09:51:56;;;;;;;2.92;0.50;;;;;;;;;;4177722;28;20068;-34
2022/04/08 09:54:02;;;;;;;2.47;0.40;;;;;;;;;;4157770;28;20500;-33
2022/04/08 09:56:10;;;;;;;2.20;0.30;;;;;;;;;;4184992;28;20060;-33
2022/04/08 09:58:13;;;;;;;2.67;0.30;;;;;;;;;;4151268;28;20053;-33
2022/04/08 10:00:15;;;;;;;5.63;0.50;;;;;;;;;;4183217;28;20099;-33
2022/04/08 10:02:17;;;;;;;0.98;0.30;;;;;;;;;;4180347;28;20184;-33
2022/04/08 10:04:19;;;;;;;1.40;0.30;;;;;;;;;;4185386;28;20085;-33
2022/04/08 10:06:23;;;;;;;2.78;0.47;;;;;;;;;;4184351;28;20045;-32
2022/04/08 10:08:24;;;;;;;1.70;0.32;;;;;;;;;;4172907;28;20044;-32
2022/04/08 10:10:33;;;;;;;2.95;0.28;;;;;;;;;;4183776;28;20053;-32
2022/04/08 10:12:42;;;;;;;2.70;0.57;;;;;;;;;;4174377;28;20455;-38
2022/04/08 10:14:51;;;;;;;2.70;0.33;;;;;;;;;;4177984;28;20471;-41
2022/04/08 10:16:53;;;;;;;0.40;0.28;;;;;;;;;;4174584;28;20053;-39
2022/04/08 10:18:55;;;;;;;0.68;0.20;;;;;;;;;;4182749;28;20059;-38
2022/04/08 10:20:58;;;;;;;0.65;0.20;;;;;;;;;;4178003;28;20092;-41
2022/04/08 10:23:10;;;;;;;0.30;0.10;;;;;;;;;;4177506;28;20080;-39
2022/04/08 10:25:16;;;;;;;1.83;0.20;;;;;;;;;;4181966;28;20488;-40
2022/04/08 10:27:30;;;;;;;1.25;0.20;;;;;;;;;;4186500;28;20473;-40
2022/04/08 10:29:33;;;;;;;0.60;0.20;;;;;;;;;;4184658;28;20613;-41
2022/04/08 10:31:34;;;;;;;0.43;0.32;;;;;;;;;;4185181;28;20416;-39
2022/04/08 10:33:45;;;;;;;0.57;0.20;;;;;;;;;;4182467;28;20537;-37
2022/04/08 10:35:53;;;;;;;0.40;0.20;;;;;;;;;;4182787;28;20053;-40
2022/04/08 10:38:03;;;;;;;0.75;0.30;;;;;;;;;;4180689;28;20060;-39
2022/04/08 10:40:09;;;;;;;1.75;0.50;;;;;;;;;;4183161;28;20071;-38
2022/04/08 10:42:21;;;;;;;4.05;0.30;;;;;;;;;;4180861;28;20053;-38
2022/04/08 10:44:35;;;;;;;0.55;0.25;;;;;;;;;;4181099;28;20064;-40
2022/04/08 10:46:36;;;;;;;0.20;0.13;;;;;;;;;;4180256;28;20537;-39
2022/04/08 10:48:37;;;;;;;0.73;0.20;;;;;;;;;;4182884;28;20053;-40
2022/04/08 10:50:40;;;;;;;3.15;0.20;;;;;;;;;;4182541;28;20354;-40
2022/04/08 10:52:41;;;;;;;1.95;0.25;;;;;;;;;;4187789;28;20151;-39
2022/04/08 10:54:42;;;;;;;1.20;0.20;;;;;;;;;;4178501;28;20542;-40
2022/04/08 10:56:43;;;;;;;0.40;0.13;;;;;;;;;;4171964;28;20488;-41
2022/04/08 10:58:49;;;;;;;0.75;0.22;;;;;;;;;;4165227;28;20352;-41
2022/04/08 11:00:51;;;;;;;0.25;0.10;;;;;;;;;;4166428;28;20057;-39
2022/04/08 11:02:54;;;;;;;2.08;0.20;;;;;;;;;;4168118;28;20108;-38
2022/04/08 11:05:03;;;;;;;0.95;0.30;;;;;;;;;;4178274;28;20119;-42
2022/04/08 11:07:07;;;;;;;2.00;0.10;;;;;;;;;;4179337;28;20577;-34
2022/04/08 11:09:12;;;;;;;2.45;0.20;;;;;;;;;;4181677;28;20182;-38
2022/04/08 11:11:13;;;;;;;0.15;0.10;;;;;;;;;;4179180;28;20044;-38
2022/04/08 11:13:14;;;;;;;1.00;0.17;;;;;;;;;;4182527;28;20049;-34
2022/04/08 11:15:20;;;;;;;0.00;0.00;;;;;;;;;;4181166;28;20060;-36
2022/04/08 11:17:21;;;;;;;0.22;0.00;;;;;;;;;;4182137;28;20049;-40
2022/04/08 11:19:22;;;;;;;0.50;0.20;;;;;;;;;;4185107;28;20052;-33
2022/04/08 11:21:24;;;;;;;0.43;0.20;;;;;;;;;;4184695;28;20492;-39
2022/04/08 11:23:26;;;;;;;3.63;0.20;;;;;;;;;;4180384;28;20106;-36
2022/04/08 11:25:29;;;;;;;2.75;0.10;;;;;;;;;;4178721;28;20060;-38
2022/04/08 11:27:31;;;;;;;0.43;0.25;;;;;;;;;;4183598;28;20555;-36
2022/04/08 11:29:32;;;;;;;1.52;0.13;;;;;;;;;;4180435;28;20057;-42
2022/04/08 11:31:33;;;;;;;2.15;0.20;;;;;;;;;;4185547;28;20048;-38
2022/04/08 11:33:35;;;;;;;3.13;0.20;;;;;;;;;;4178985;28;20044;-41
2022/04/08 11:35:38;;;;;;;2.95;0.20;;;;;;;;;;4176652;28;20067;-38
2022/04/08 11:37:40;;;;;;;1.55;0.10;;;;;;;;;;4181074;28;21534;-38
2022/04/08 11:39:41;;;;;;;0.15;0.13;;;;;;;;;;4182911;28;20461;-38
2022/04/08 11:41:42;;;;;;;0.57;0.20;;;;;;;;;;4184066;28;20106;-40
2022/04/08 11:43:44;;;;;;;0.65;0.20;;;;;;;;;;4179638;28;20472;-41
2022/04/08 11:45:46;;;;;;;0.10;0.10;;;;;;;;;;4180972;28;20090;-41
2022/04/08 11:47:48;;;;;;;0.22;0.10;;;;;;;;;;4183244;28;20048;-35
2022/04/08 11:49:49;;;;;;;0.30;0.10;;;;;;;;;;4178414;28;20056;-36
2022/04/08 11:52:00;;;;;;;2.70;0.40;;;;;;;;;;4164084;28;20053;-37
2022/04/08 11:54:02;;;;;;;0.22;0.10;;;;;;;;;;4179885;28;20052;-37
2022/04/08 11:56:04;;;;;;;0.38;0.20;;;;;;;;;;4183803;28;20053;-39
2022/04/08 11:58:17;;;;;;;1.75;0.10;;;;;;;;;;4178893;28;20044;-41
2022/04/08 12:00:29;;;;;;;0.52;0.20;;;;;;;;;;4176120;28;20054;-39
2022/04/08 12:02:31;;;;;;;1.25;0.10;;;;;;;;;;4160187;28;20115;-37
2022/04/08 12:04:32;;;;;;;0.98;0.10;;;;;;;;;;4162535;28;20045;-40
2022/04/08 12:06:35;;;;;;;0.08;0.08;;;;;;;;;;4161077;28;20104;-40
2022/04/08 12:08:36;;;;;;;0.47;0.10;;;;;;;;;;4167799;28;20052;-40
2022/04/08 12:10:37;;;;;;;0.95;0.10;;;;;;;;;;4161992;28;20407;-40
2022/04/08 12:12:39;;;;;;;0.22;0.10;;;;;;;;;;4168074;28;20087;-41